Tropical Cyclones
[Index]
Main Index Home Page Stock Weather Photos Extreme Storms Discussion Storm News and Storm Chasing Reports Tropical Cyclones / Hurricanes / Typhoons Weather Data and Links Wild Fires / Bushfires Weather Observation Techniques Weather Picture Catalogue Tornado Pictures and Reports Stock Video Footage and DVDs for sale
Season 1999-2000 Tropical Cyclone ROSITA Track Map
Season 1999-2000 Summaries (Operational Data): [AU] [SIO] [SPAC] [SH]
<<- Previous TC | 1999-2000 Season | Next TC ->>

click for intensity scale information  Lat/long Grid: Show Hide

 Date Labels: Show Hide

Operational Tropical Cyclone Data : JTWC Advisories

Name: ROSITA
Number: 0027

15 Apr 2000 04:00 UTC to 21 Apr 2000 04:00 UTC

    date/time    lat    long     hPa   cat  kts
2000-04-15 04   12.0   123.0    1006         25          
2000-04-16 04   13.2   118.2    1000         30          
2000-04-16 10   13.4   118.0    1000         30          
2000-04-16 16   14.2   119.2    1000         30          
2000-04-16 22   14.1   119.4    1000         30          
2000-04-17 04   14.1   119.4    1000         30          
2000-04-17 10   14.3   119.3     995    1    45          
2000-04-17 16   14.7   119.0     990    1    45          
2000-04-17 22   15.8   118.7     986    1    45          
2000-04-18 04   16.5   119.0     990    1    45          
2000-04-18 10   17.1   119.1     990    1    45          
2000-04-18 16   17.5   119.0     985    1    45          
2000-04-18 22   17.4   119.9     965    3    70          
2000-04-19 04   17.5   120.3     950    3    80          
2000-04-19 07   17.7   120.7     930    4   100          
2000-04-19 10   17.8   121.0     930    4   105          
2000-04-19 13   18.0   121.7     930    4   105          
2000-04-19 16   18.2   122.0     930    4   105          
2000-04-19 19   18.5   122.5     945    3    80          
2000-04-19 23   18.8   123.2     975    2    60          
2000-04-20 04   19.4   124.1     995    1    35          
2000-04-21 04   20.0   131.0                             
Winds are 10-min average.

Tropical cyclone tracks developed by Michael Bath using operational warnings and advisories and Google Maps.


[Australian Severe Weather index] [Copyright Notice] [Email Contacts] [Search This Site] [Privacy Policy]
Document: tropical_cyclone_rosita.htm Updated: 28 May 2013